createdAt,value
2023-04-16T00:00:48.302Z,9.97
2023-04-16T00:05:51.343Z,10.05
2023-04-16T00:10:54.334Z,9.97
2023-04-16T00:15:58.985Z,10.06
2023-04-16T00:21:01.789Z,10.11
2023-04-16T00:26:04.423Z,10.15
2023-04-16T00:31:08.388Z,10.17
2023-04-16T00:36:11.086Z,10.19
2023-04-16T00:41:13.689Z,10.14
2023-04-16T00:46:17.985Z,10.00
2023-04-16T00:51:21.409Z,9.97
2023-04-16T00:56:25.585Z,9.92
2023-04-16T01:01:29.736Z,9.94
2023-04-16T01:06:32.392Z,9.95
2023-04-16T01:11:35.002Z,10.06
2023-04-16T01:23:26.776Z,9.94
2023-04-16T01:28:29.419Z,9.92
2023-04-16T01:33:32.303Z,9.95
2023-04-16T01:38:36.515Z,9.90
2023-04-16T01:43:40.277Z,9.85
2023-04-16T01:48:43.323Z,9.99
2023-04-16T01:53:47.237Z,9.90
2023-04-16T01:58:49.799Z,9.99
2023-04-16T02:03:54.672Z,9.94
2023-04-16T02:08:58.644Z,9.95
2023-04-16T02:14:01.745Z,9.93
2023-04-16T02:19:04.741Z,10.00
2023-04-16T02:24:11.916Z,10.03
2023-04-16T02:29:14.807Z,9.85
2023-04-16T02:34:21.663Z,9.91
2023-04-16T02:39:26.417Z,9.76
2023-04-16T02:44:30.450Z,9.81
2023-04-16T02:49:33.021Z,9.72
2023-04-16T02:54:36.909Z,9.71
2023-04-16T02:59:39.506Z,9.70
2023-04-16T03:04:42.227Z,9.67
2023-04-16T03:09:46.752Z,9.75
2023-04-16T03:14:51.666Z,9.76
2023-04-16T03:19:54.375Z,9.83
2023-04-16T03:24:58.331Z,9.93
2023-04-16T03:30:01.187Z,9.81
2023-04-16T03:35:03.955Z,9.76
2023-04-16T03:40:09.859Z,9.96
2023-04-16T03:45:13.545Z,10.00
2023-04-16T03:50:16.884Z,10.05
2023-04-16T03:55:21.345Z,10.05
2023-04-16T04:00:24.047Z,9.97
2023-04-16T04:05:37.562Z,10.14
2023-04-16T04:10:41.604Z,10.09
2023-04-16T04:15:47.958Z,10.10
2023-04-16T04:20:50.853Z,9.96
2023-04-16T04:25:57.575Z,9.83
2023-04-16T04:31:01.190Z,9.72
2023-04-16T04:36:07.124Z,9.85
2023-04-16T04:41:12.099Z,9.94
2023-04-16T04:46:15.296Z,9.86
2023-04-16T04:51:17.935Z,9.92
2023-04-16T04:56:24.223Z,9.96
2023-04-16T05:01:26.911Z,10.06
2023-04-16T05:06:29.722Z,10.09
2023-04-16T05:11:34.838Z,10.04
2023-04-16T05:16:38.150Z,9.79
2023-04-16T05:21:40.699Z,9.96
2023-04-16T05:26:44.597Z,10.04
2023-04-16T05:31:47.264Z,9.87
2023-04-16T05:36:50.277Z,9.97
2023-04-16T05:41:54.231Z,10.00
2023-04-16T05:46:56.800Z,9.91
2023-04-16T05:51:59.428Z,9.92
2023-04-16T05:57:03.333Z,9.84
2023-04-16T06:02:06.400Z,9.91
2023-04-16T06:07:08.945Z,9.97
2023-04-16T06:12:12.849Z,9.98
2023-04-16T06:17:16.562Z,10.03
2023-04-16T06:22:19.239Z,9.98
2023-04-16T06:27:23.117Z,9.99
2023-04-16T06:32:26.153Z,10.02
2023-04-16T06:37:28.726Z,10.00
2023-04-16T06:42:32.638Z,10.05
2023-04-16T06:47:35.300Z,10.10
2023-04-16T06:52:37.948Z,10.11
2023-04-16T06:57:41.905Z,10.19
2023-04-16T07:02:44.508Z,10.21
2023-04-16T07:07:47.653Z,10.28
2023-04-16T07:12:52.015Z,10.32
2023-04-16T07:17:54.659Z,10.32
2023-04-16T07:22:59.218Z,10.31
2023-04-16T07:28:04.417Z,10.57
2023-04-16T07:33:07.109Z,10.58
2023-04-16T07:38:09.894Z,10.73
2023-04-16T07:43:16.140Z,10.74
2023-04-16T07:48:18.745Z,11.12
2023-04-16T07:53:21.322Z,11.24
2023-04-16T07:58:25.376Z,11.31
2023-04-16T08:03:28.318Z,11.42
2023-04-16T08:08:31.605Z,11.23
2023-04-16T08:13:36.591Z,11.10
2023-04-16T08:18:39.131Z,11.21
2023-04-16T08:23:41.690Z,11.18
2023-04-16T08:28:46.502Z,11.34
2023-04-16T08:33:49.219Z,11.58
2023-04-16T08:38:52.494Z,11.64
2023-04-16T08:43:58.649Z,11.85
2023-04-16T08:49:02.264Z,11.84
2023-04-16T08:54:09.915Z,11.83
2023-04-16T08:59:14.823Z,11.83
2023-04-16T09:04:18.059Z,11.93
2023-04-16T09:09:22.123Z,12.11
2023-04-16T09:14:26.445Z,12.12
2023-04-16T09:19:29.406Z,12.17
2023-04-16T09:24:34.500Z,12.19
2023-04-16T09:29:40.441Z,12.29
2023-04-16T09:35:02.382Z,12.33
2023-04-16T09:40:08.155Z,12.38
2023-04-16T09:45:12.720Z,12.53
2023-04-16T09:50:18.583Z,12.55
2023-04-16T09:55:24.552Z,12.67
2023-04-16T10:07:15.268Z,12.93
2023-04-16T10:12:18.192Z,13.08
2023-04-16T10:17:21.418Z,13.05
2023-04-16T10:22:25.345Z,13.28
2023-04-16T10:27:28.318Z,13.33
2023-04-16T10:32:32.764Z,13.56
2023-04-16T10:37:38.523Z,13.81
2023-04-16T10:42:41.297Z,13.69
2023-04-16T10:47:43.928Z,13.83
2023-04-16T10:52:47.871Z,13.96
2023-04-16T10:57:52.645Z,14.06
2023-04-16T11:02:55.562Z,14.35
2023-04-16T11:08:15.101Z,14.49
2023-04-16T11:13:19.346Z,14.45
2023-04-16T11:18:21.933Z,14.39
2023-04-16T11:23:25.833Z,14.48
2023-04-16T11:28:35.080Z,14.50
2023-04-16T11:33:40.812Z,14.77
2023-04-16T11:38:47.136Z,15.02
2023-04-16T11:43:51.044Z,15.11
2023-04-16T11:48:56.164Z,15.18
2023-04-16T11:54:01.559Z,15.11
2023-04-16T11:59:13.481Z,15.05
2023-04-16T12:04:17.553Z,14.91
2023-04-16T12:09:26.057Z,15.02
2023-04-16T12:14:29.417Z,15.02
2023-04-16T12:19:32.169Z,15.02
2023-04-16T12:24:38.526Z,15.06
2023-04-16T12:29:42.392Z,15.24
2023-04-16T12:34:51.349Z,15.10
2023-04-16T12:39:55.527Z,15.16
2023-04-16T12:44:58.040Z,15.30
2023-04-16T12:50:01.391Z,15.52
2023-04-16T12:55:05.774Z,15.04
2023-04-16T13:00:10.370Z,15.32
2023-04-16T13:05:14.432Z,15.24
2023-04-16T13:10:21.492Z,15.14
2023-04-16T13:15:24.184Z,15.18
2023-04-16T13:20:27.179Z,15.31
2023-04-16T13:25:31.741Z,15.35
2023-04-16T13:30:34.374Z,15.50
2023-04-16T13:35:37.188Z,15.35
2023-04-16T13:40:41.946Z,15.22
2023-04-16T13:45:44.518Z,15.16
2023-04-16T13:50:47.050Z,15.12
2023-04-16T13:55:50.962Z,15.04
2023-04-16T14:00:53.976Z,15.01
2023-04-16T14:05:59.334Z,15.05
2023-04-16T14:11:05.442Z,15.03
2023-04-16T14:16:08.041Z,14.93
2023-04-16T14:21:10.640Z,14.98
2023-04-16T14:26:14.649Z,15.09
2023-04-16T14:31:17.921Z,15.36
2023-04-16T14:36:20.876Z,15.46
2023-04-16T14:41:25.017Z,15.56
2023-04-16T14:46:27.955Z,15.78
2023-04-16T14:51:31.345Z,15.92
2023-04-16T14:56:35.635Z,15.80
2023-04-16T15:01:39.685Z,15.64
2023-04-16T15:06:42.370Z,15.36
2023-04-16T15:11:46.333Z,15.29
2023-04-16T15:16:49.116Z,15.11
2023-04-16T15:21:51.707Z,14.96
2023-04-16T15:26:56.072Z,14.90
2023-04-16T15:31:58.752Z,14.77
2023-04-16T15:37:01.375Z,14.66
2023-04-16T15:42:07.411Z,14.56
2023-04-16T15:47:10.197Z,14.37
2023-04-16T15:52:12.819Z,14.11
2023-04-16T15:57:16.735Z,13.99
2023-04-16T16:02:19.376Z,13.87
2023-04-16T16:07:22.179Z,13.70
2023-04-16T16:12:26.456Z,13.66
2023-04-16T16:17:29.261Z,13.73
2023-04-16T16:22:31.838Z,13.80
2023-04-16T16:27:36.397Z,13.67
2023-04-16T16:32:40.798Z,13.59
2023-04-16T16:37:43.632Z,13.64
2023-04-16T16:42:47.590Z,13.57
2023-04-16T16:47:51.006Z,13.40
2023-04-16T16:52:54.358Z,13.42
2023-04-16T16:57:58.432Z,13.34
2023-04-16T17:03:01.312Z,13.29
2023-04-16T17:08:04.172Z,13.29
2023-04-16T17:13:08.084Z,13.33
2023-04-16T17:18:10.707Z,13.32
2023-04-16T17:23:14.017Z,13.45
2023-04-16T17:28:18.137Z,13.37
2023-04-16T17:33:21.250Z,13.39
2023-04-16T17:38:24.463Z,13.06
2023-04-16T17:43:28.814Z,13.31
2023-04-16T17:48:31.714Z,13.21
2023-04-16T17:53:34.271Z,13.22
2023-04-16T17:58:38.381Z,13.20
2023-04-16T18:03:42.024Z,12.98
2023-04-16T18:08:44.697Z,12.99
2023-04-16T18:13:48.602Z,12.92
2023-04-16T18:18:51.295Z,12.78
2023-04-16T18:23:54.083Z,12.77
2023-04-16T18:28:58.275Z,12.78
2023-04-16T18:34:03.455Z,12.76
2023-04-16T18:39:08.093Z,12.93
2023-04-16T18:44:12.685Z,13.02
2023-04-16T18:49:15.391Z,13.04
2023-04-16T18:54:20.266Z,13.00
2023-04-16T18:59:24.223Z,12.94
2023-04-16T19:04:28.772Z,12.91
2023-04-16T19:09:31.386Z,12.83
2023-04-16T19:14:35.617Z,12.73
2023-04-16T19:19:38.948Z,12.49
2023-04-16T19:24:42.162Z,12.58
2023-04-16T19:29:47.173Z,12.51
2023-04-16T19:34:49.845Z,11.98
2023-04-16T19:39:52.566Z,12.48
2023-04-16T19:44:56.810Z,12.39
2023-04-16T19:49:59.492Z,12.46
2023-04-16T19:55:02.040Z,12.42
2023-04-16T20:00:11.164Z,12.27
2023-04-16T20:05:13.779Z,12.13
2023-04-16T20:10:16.662Z,11.99
2023-04-16T20:15:21.105Z,11.93
2023-04-16T20:20:23.789Z,11.85
2023-04-16T20:25:26.501Z,11.75
2023-04-16T20:30:38.397Z,11.84
2023-04-16T20:35:41.016Z,11.89
2023-04-16T20:40:46.994Z,11.92
2023-04-16T20:45:50.880Z,11.75
2023-04-16T20:50:59.502Z,11.63
2023-04-16T20:56:02.098Z,11.74
2023-04-16T21:01:06.135Z,11.68
2023-04-16T21:06:08.834Z,11.78
2023-04-16T21:11:11.399Z,11.71
2023-04-16T21:16:15.517Z,11.13
2023-04-16T21:21:18.936Z,11.59
2023-04-16T21:26:21.534Z,11.64
2023-04-16T21:31:25.514Z,11.52
2023-04-16T21:36:29.115Z,11.50
2023-04-16T21:41:31.653Z,11.50
2023-04-16T21:46:35.655Z,11.43
2023-04-16T21:51:40.068Z,11.47
2023-04-16T21:56:43.083Z,11.48
2023-04-16T22:01:47.011Z,11.44
2023-04-16T22:06:55.684Z,11.48
2023-04-16T22:11:58.547Z,11.44
2023-04-16T22:17:03.431Z,11.52
2023-04-16T22:22:06.411Z,11.49
2023-04-16T22:27:08.955Z,11.50
2023-04-16T22:32:12.875Z,11.49
2023-04-16T22:37:15.813Z,11.48
2023-04-16T22:42:18.374Z,11.41
2023-04-16T22:47:22.458Z,11.54
2023-04-16T22:52:25.031Z,11.39
2023-04-16T22:57:27.565Z,11.44
2023-04-16T23:02:31.533Z,11.41
2023-04-16T23:07:34.159Z,11.41
2023-04-16T23:12:37.936Z,11.48
2023-04-16T23:17:41.894Z,11.46
2023-04-16T23:22:44.457Z,11.45
2023-04-16T23:27:47.412Z,11.49
2023-04-16T23:32:51.433Z,11.42
2023-04-16T23:37:53.988Z,11.29
2023-04-16T23:42:56.600Z,11.35
2023-04-16T23:48:00.619Z,11.25
2023-04-16T23:53:03.205Z,11.21
2023-04-16T23:58:05.746Z,11.19
